sensor_id;sensor_type;location;lat;lon;timestamp;P1;durP1;ratioP1;P2;durP2;ratioP2
42964;SDS011;28604;51.204;22.552;2023-04-06T00:01:53;8.13;;;4.35;;
42964;SDS011;28604;51.204;22.552;2023-04-06T00:04:19;8.27;;;5.10;;
42964;SDS011;28604;51.204;22.552;2023-04-06T00:06:45;9.38;;;4.50;;
42964;SDS011;28604;51.204;22.552;2023-04-06T00:09:11;11.27;;;5.43;;
42964;SDS011;28604;51.204;22.552;2023-04-06T00:11:37;7.55;;;4.28;;
42964;SDS011;28604;51.204;22.552;2023-04-06T00:14:03;8.50;;;4.45;;
42964;SDS011;28604;51.204;22.552;2023-04-06T00:16:28;11.70;;;4.93;;
42964;SDS011;28604;51.204;22.552;2023-04-06T00:18:55;9.65;;;4.50;;
42964;SDS011;28604;51.204;22.552;2023-04-06T00:21:20;10.90;;;5.00;;
42964;SDS011;28604;51.204;22.552;2023-04-06T00:23:46;10.48;;;4.72;;
42964;SDS011;28604;51.204;22.552;2023-04-06T00:26:12;11.05;;;4.82;;
42964;SDS011;28604;51.204;22.552;2023-04-06T00:28:43;9.63;;;4.25;;
42964;SDS011;28604;51.204;22.552;2023-04-06T00:31:09;12.30;;;5.10;;
42964;SDS011;28604;51.204;22.552;2023-04-06T00:33:35;9.77;;;4.30;;
42964;SDS011;28604;51.204;22.552;2023-04-06T00:36:01;11.95;;;4.35;;
42964;SDS011;28604;51.204;22.552;2023-04-06T00:38:27;9.20;;;4.80;;
42964;SDS011;28604;51.204;22.552;2023-04-06T00:40:53;9.88;;;3.80;;
42964;SDS011;28604;51.204;22.552;2023-04-06T00:43:19;10.63;;;4.10;;
42964;SDS011;28604;51.204;22.552;2023-04-06T00:45:45;9.50;;;4.18;;
42964;SDS011;28604;51.204;22.552;2023-04-06T00:48:11;12.82;;;4.70;;
42964;SDS011;28604;51.204;22.552;2023-04-06T00:50:37;8.15;;;4.78;;
42964;SDS011;28604;51.204;22.552;2023-04-06T00:53:03;7.50;;;4.57;;
42964;SDS011;28604;51.204;22.552;2023-04-06T00:55:29;7.93;;;3.88;;
42964;SDS011;28604;51.204;22.552;2023-04-06T00:57:57;9.23;;;4.35;;
42964;SDS011;28604;51.204;22.552;2023-04-06T01:00:25;8.00;;;3.58;;
42964;SDS011;28604;51.204;22.552;2023-04-06T01:02:56;7.32;;;3.95;;
42964;SDS011;28604;51.204;22.552;2023-04-06T01:05:30;7.45;;;3.47;;
42964;SDS011;28604;51.204;22.552;2023-04-06T01:08:07;12.40;;;4.32;;
42964;SDS011;28604;51.204;22.552;2023-04-06T01:10:33;6.95;;;3.38;;
42964;SDS011;28604;51.204;22.552;2023-04-06T01:13:08;7.68;;;3.78;;
42964;SDS011;28604;51.204;22.552;2023-04-06T01:15:45;7.97;;;3.90;;
42964;SDS011;28604;51.204;22.552;2023-04-06T01:18:16;6.15;;;4.00;;
42964;SDS011;28604;51.204;22.552;2023-04-06T01:20:51;3.17;;;2.50;;
42964;SDS011;28604;51.204;22.552;2023-04-06T01:23:18;6.90;;;4.15;;
42964;SDS011;28604;51.204;22.552;2023-04-06T01:25:46;5.93;;;3.20;;
42964;SDS011;28604;51.204;22.552;2023-04-06T01:28:12;9.50;;;3.60;;
42964;SDS011;28604;51.204;22.552;2023-04-06T01:30:51;5.63;;;3.03;;
42964;SDS011;28604;51.204;22.552;2023-04-06T01:33:35;7.60;;;3.83;;
42964;SDS011;28604;51.204;22.552;2023-04-06T01:36:05;9.07;;;3.47;;
42964;SDS011;28604;51.204;22.552;2023-04-06T01:38:32;4.30;;;3.00;;
42964;SDS011;28604;51.204;22.552;2023-04-06T01:40:58;6.97;;;3.72;;
42964;SDS011;28604;51.204;22.552;2023-04-06T01:43:30;5.30;;;2.78;;
42964;SDS011;28604;51.204;22.552;2023-04-06T01:46:07;9.15;;;3.33;;
42964;SDS011;28604;51.204;22.552;2023-04-06T01:48:37;5.55;;;2.33;;
42964;SDS011;28604;51.204;22.552;2023-04-06T01:51:13;7.88;;;3.22;;
42964;SDS011;28604;51.204;22.552;2023-04-06T01:53:47;4.68;;;2.78;;
42964;SDS011;28604;51.204;22.552;2023-04-06T01:56:14;4.35;;;2.95;;
42964;SDS011;28604;51.204;22.552;2023-04-06T01:58:46;3.53;;;2.50;;
42964;SDS011;28604;51.204;22.552;2023-04-06T02:01:16;5.60;;;2.85;;
42964;SDS011;28604;51.204;22.552;2023-04-06T02:03:50;5.13;;;2.15;;
42964;SDS011;28604;51.204;22.552;2023-04-06T02:06:16;6.68;;;2.90;;
42964;SDS011;28604;51.204;22.552;2023-04-06T02:08:42;3.55;;;2.65;;
42964;SDS011;28604;51.204;22.552;2023-04-06T02:11:08;4.13;;;2.47;;
42964;SDS011;28604;51.204;22.552;2023-04-06T02:13:41;4.25;;;2.63;;
42964;SDS011;28604;51.204;22.552;2023-04-06T02:16:08;3.05;;;2.85;;
42964;SDS011;28604;51.204;22.552;2023-04-06T02:18:35;3.38;;;2.75;;
42964;SDS011;28604;51.204;22.552;2023-04-06T02:21:01;6.68;;;2.75;;
42964;SDS011;28604;51.204;22.552;2023-04-06T02:23:28;6.53;;;3.35;;
42964;SDS011;28604;51.204;22.552;2023-04-06T02:25:56;6.72;;;2.70;;
42964;SDS011;28604;51.204;22.552;2023-04-06T02:28:22;4.03;;;2.53;;
42964;SDS011;28604;51.204;22.552;2023-04-06T02:30:47;7.28;;;2.03;;
42964;SDS011;28604;51.204;22.552;2023-04-06T02:33:14;3.40;;;2.20;;
42964;SDS011;28604;51.204;22.552;2023-04-06T02:35:44;5.13;;;2.47;;
42964;SDS011;28604;51.204;22.552;2023-04-06T02:38:11;3.63;;;2.53;;
42964;SDS011;28604;51.204;22.552;2023-04-06T02:40:37;6.18;;;2.83;;
42964;SDS011;28604;51.204;22.552;2023-04-06T02:43:35;5.50;;;2.72;;
42964;SDS011;28604;51.204;22.552;2023-04-06T02:46:12;2.78;;;2.35;;
42964;SDS011;28604;51.204;22.552;2023-04-06T02:48:38;6.90;;;2.40;;
42964;SDS011;28604;51.204;22.552;2023-04-06T02:51:05;6.28;;;4.60;;
42964;SDS011;28604;51.204;22.552;2023-04-06T02:53:31;5.85;;;2.83;;
42964;SDS011;28604;51.204;22.552;2023-04-06T02:55:58;7.65;;;3.25;;
42964;SDS011;28604;51.204;22.552;2023-04-06T02:58:31;8.20;;;2.63;;
42964;SDS011;28604;51.204;22.552;2023-04-06T03:00:58;8.60;;;2.92;;
42964;SDS011;28604;51.204;22.552;2023-04-06T03:03:24;5.03;;;2.47;;
42964;SDS011;28604;51.204;22.552;2023-04-06T03:05:50;7.90;;;2.78;;
42964;SDS011;28604;51.204;22.552;2023-04-06T03:08:24;3.50;;;2.42;;
42964;SDS011;28604;51.204;22.552;2023-04-06T03:10:50;4.53;;;2.42;;
42964;SDS011;28604;51.204;22.552;2023-04-06T03:13:17;4.28;;;2.25;;
42964;SDS011;28604;51.204;22.552;2023-04-06T03:15:47;3.80;;;2.67;;
42964;SDS011;28604;51.204;22.552;2023-04-06T03:18:23;8.93;;;3.08;;
42964;SDS011;28604;51.204;22.552;2023-04-06T03:20:51;4.77;;;2.47;;
42964;SDS011;28604;51.204;22.552;2023-04-06T03:23:24;3.97;;;2.70;;
42964;SDS011;28604;51.204;22.552;2023-04-06T03:25:55;4.57;;;2.47;;
42964;SDS011;28604;51.204;22.552;2023-04-06T03:28:21;5.70;;;3.00;;
42964;SDS011;28604;51.204;22.552;2023-04-06T03:30:59;3.65;;;3.08;;
42964;SDS011;28604;51.204;22.552;2023-04-06T03:33:55;4.72;;;2.83;;
42964;SDS011;28604;51.204;22.552;2023-04-06T03:36:25;12.85;;;2.63;;
42964;SDS011;28604;51.204;22.552;2023-04-06T03:38:54;3.28;;;2.22;;
42964;SDS011;28604;51.204;22.552;2023-04-06T03:41:20;7.22;;;3.03;;
42964;SDS011;28604;51.204;22.552;2023-04-06T03:43:54;4.03;;;2.85;;
42964;SDS011;28604;51.204;22.552;2023-04-06T03:46:21;9.43;;;4.15;;
42964;SDS011;28604;51.204;22.552;2023-04-06T03:48:50;6.95;;;3.45;;
42964;SDS011;28604;51.204;22.552;2023-04-06T03:51:19;4.35;;;3.20;;
42964;SDS011;28604;51.204;22.552;2023-04-06T03:53:46;5.35;;;3.17;;
42964;SDS011;28604;51.204;22.552;2023-04-06T03:56:13;4.28;;;3.35;;
42964;SDS011;28604;51.204;22.552;2023-04-06T03:58:38;3.33;;;2.70;;
42964;SDS011;28604;51.204;22.552;2023-04-06T04:01:04;5.80;;;3.38;;
42964;SDS011;28604;51.204;22.552;2023-04-06T04:03:30;8.50;;;3.13;;
42964;SDS011;28604;51.204;22.552;2023-04-06T04:05:56;3.63;;;2.67;;
42964;SDS011;28604;51.204;22.552;2023-04-06T04:08:24;5.85;;;2.70;;
42964;SDS011;28604;51.204;22.552;2023-04-06T04:10:50;3.30;;;2.95;;
42964;SDS011;28604;51.204;22.552;2023-04-06T04:13:16;5.15;;;2.88;;
42964;SDS011;28604;51.204;22.552;2023-04-06T04:15:46;3.65;;;2.42;;
42964;SDS011;28604;51.204;22.552;2023-04-06T04:18:13;3.28;;;2.60;;
42964;SDS011;28604;51.204;22.552;2023-04-06T04:20:39;6.95;;;2.42;;
42964;SDS011;28604;51.204;22.552;2023-04-06T04:23:06;3.35;;;2.17;;
42964;SDS011;28604;51.204;22.552;2023-04-06T04:25:34;2.70;;;2.15;;
42964;SDS011;28604;51.204;22.552;2023-04-06T04:27:59;3.35;;;2.25;;
42964;SDS011;28604;51.204;22.552;2023-04-06T04:30:27;3.47;;;2.55;;
42964;SDS011;28604;51.204;22.552;2023-04-06T04:32:52;8.15;;;2.78;;
42964;SDS011;28604;51.204;22.552;2023-04-06T04:35:22;4.35;;;3.00;;
42964;SDS011;28604;51.204;22.552;2023-04-06T04:37:48;5.28;;;2.28;;
42964;SDS011;28604;51.204;22.552;2023-04-06T04:40:15;8.50;;;3.22;;
42964;SDS011;28604;51.204;22.552;2023-04-06T04:42:48;3.78;;;2.30;;
42964;SDS011;28604;51.204;22.552;2023-04-06T04:45:23;6.05;;;3.13;;
42964;SDS011;28604;51.204;22.552;2023-04-06T04:47:49;5.45;;;2.80;;
42964;SDS011;28604;51.204;22.552;2023-04-06T04:50:17;5.82;;;2.88;;
42964;SDS011;28604;51.204;22.552;2023-04-06T04:52:45;7.05;;;3.40;;
42964;SDS011;28604;51.204;22.552;2023-04-06T04:55:15;6.18;;;2.88;;
42964;SDS011;28604;51.204;22.552;2023-04-06T04:57:45;4.88;;;3.30;;
42964;SDS011;28604;51.204;22.552;2023-04-06T05:00:15;4.80;;;3.22;;
42964;SDS011;28604;51.204;22.552;2023-04-06T05:02:43;8.48;;;3.83;;
42964;SDS011;28604;51.204;22.552;2023-04-06T05:05:14;3.42;;;2.70;;
42964;SDS011;28604;51.204;22.552;2023-04-06T05:07:40;6.57;;;3.38;;
42964;SDS011;28604;51.204;22.552;2023-04-06T05:10:11;6.40;;;3.33;;
42964;SDS011;28604;51.204;22.552;2023-04-06T05:12:47;7.38;;;3.13;;
42964;SDS011;28604;51.204;22.552;2023-04-06T05:15:13;3.15;;;2.92;;
42964;SDS011;28604;51.204;22.552;2023-04-06T05:17:40;6.13;;;2.80;;
42964;SDS011;28604;51.204;22.552;2023-04-06T05:20:08;7.53;;;3.10;;
42964;SDS011;28604;51.204;22.552;2023-04-06T05:22:42;5.53;;;3.20;;
42964;SDS011;28604;51.204;22.552;2023-04-06T05:25:10;8.77;;;3.65;;
42964;SDS011;28604;51.204;22.552;2023-04-06T05:27:37;6.55;;;3.78;;
42964;SDS011;28604;51.204;22.552;2023-04-06T05:30:08;7.50;;;4.18;;
42964;SDS011;28604;51.204;22.552;2023-04-06T05:32:40;13.35;;;4.57;;
42964;SDS011;28604;51.204;22.552;2023-04-06T05:35:06;7.55;;;3.78;;
42964;SDS011;28604;51.204;22.552;2023-04-06T05:37:33;5.35;;;3.97;;
42964;SDS011;28604;51.204;22.552;2023-04-06T05:40:00;10.02;;;4.05;;
42964;SDS011;28604;51.204;22.552;2023-04-06T05:42:26;5.18;;;3.75;;
42964;SDS011;28604;51.204;22.552;2023-04-06T05:44:57;7.88;;;4.10;;
42964;SDS011;28604;51.204;22.552;2023-04-06T05:47:23;6.07;;;4.22;;
42964;SDS011;28604;51.204;22.552;2023-04-06T05:49:57;9.90;;;4.80;;
42964;SDS011;28604;51.204;22.552;2023-04-06T05:52:32;9.93;;;4.95;;
42964;SDS011;28604;51.204;22.552;2023-04-06T05:54:58;7.63;;;4.63;;
42964;SDS011;28604;51.204;22.552;2023-04-06T05:57:25;6.68;;;4.78;;
42964;SDS011;28604;51.204;22.552;2023-04-06T05:59:51;9.77;;;4.80;;
42964;SDS011;28604;51.204;22.552;2023-04-06T06:02:19;7.47;;;4.63;;
42964;SDS011;28604;51.204;22.552;2023-04-06T06:04:49;7.32;;;4.57;;
42964;SDS011;28604;51.204;22.552;2023-04-06T06:07:16;12.80;;;6.40;;
42964;SDS011;28604;51.204;22.552;2023-04-06T06:12:20;9.63;;;4.95;;
42964;SDS011;28604;51.204;22.552;2023-04-06T06:14:48;8.93;;;5.20;;
42964;SDS011;28604;51.204;22.552;2023-04-06T06:17:15;10.00;;;4.63;;
42964;SDS011;28604;51.204;22.552;2023-04-06T06:19:44;8.20;;;5.30;;
42964;SDS011;28604;51.204;22.552;2023-04-06T06:22:10;10.55;;;5.50;;
42964;SDS011;28604;51.204;22.552;2023-04-06T06:24:40;11.27;;;5.68;;
42964;SDS011;28604;51.204;22.552;2023-04-06T06:27:06;10.30;;;5.20;;
42964;SDS011;28604;51.204;22.552;2023-04-06T06:29:34;9.98;;;5.18;;
42964;SDS011;28604;51.204;22.552;2023-04-06T06:32:00;11.32;;;5.88;;
42964;SDS011;28604;51.204;22.552;2023-04-06T06:34:26;7.85;;;4.80;;
42964;SDS011;28604;51.204;22.552;2023-04-06T06:36:55;13.13;;;5.97;;
42964;SDS011;28604;51.204;22.552;2023-04-06T06:39:21;7.80;;;4.82;;
42964;SDS011;28604;51.204;22.552;2023-04-06T06:41:49;7.95;;;5.45;;
42964;SDS011;28604;51.204;22.552;2023-04-06T06:44:16;8.65;;;4.65;;
42964;SDS011;28604;51.204;22.552;2023-04-06T06:46:42;7.30;;;4.18;;
42964;SDS011;28604;51.204;22.552;2023-04-06T06:49:08;7.72;;;5.03;;
42964;SDS011;28604;51.204;22.552;2023-04-06T06:51:36;11.38;;;5.05;;
42964;SDS011;28604;51.204;22.552;2023-04-06T06:54:02;8.90;;;4.72;;
42964;SDS011;28604;51.204;22.552;2023-04-06T06:56:28;13.60;;;5.28;;
42964;SDS011;28604;51.204;22.552;2023-04-06T06:58:55;6.13;;;4.63;;
42964;SDS011;28604;51.204;22.552;2023-04-06T07:01:21;8.45;;;4.95;;
42964;SDS011;28604;51.204;22.552;2023-04-06T07:03:47;11.05;;;5.25;;
42964;SDS011;28604;51.204;22.552;2023-04-06T07:06:13;10.82;;;5.35;;
42964;SDS011;28604;51.204;22.552;2023-04-06T07:08:39;9.02;;;5.18;;
42964;SDS011;28604;51.204;22.552;2023-04-06T07:11:05;7.18;;;5.07;;
42964;SDS011;28604;51.204;22.552;2023-04-06T07:13:31;8.70;;;5.13;;
42964;SDS011;28604;51.204;22.552;2023-04-06T07:16:00;6.85;;;4.72;;
42964;SDS011;28604;51.204;22.552;2023-04-06T07:18:27;10.35;;;5.55;;
42964;SDS011;28604;51.204;22.552;2023-04-06T07:20:53;7.25;;;4.97;;
42964;SDS011;28604;51.204;22.552;2023-04-06T07:23:19;6.90;;;4.68;;
42964;SDS011;28604;51.204;22.552;2023-04-06T07:25:45;7.03;;;4.55;;
42964;SDS011;28604;51.204;22.552;2023-04-06T07:28:11;5.72;;;4.78;;
42964;SDS011;28604;51.204;22.552;2023-04-06T07:30:38;7.20;;;4.85;;
42964;SDS011;28604;51.204;22.552;2023-04-06T07:33:04;11.30;;;4.40;;
42964;SDS011;28604;51.204;22.552;2023-04-06T07:35:33;8.98;;;5.40;;
42964;SDS011;28604;51.204;22.552;2023-04-06T07:38:00;7.50;;;5.55;;
42964;SDS011;28604;51.204;22.552;2023-04-06T07:40:26;8.57;;;5.30;;
42964;SDS011;28604;51.204;22.552;2023-04-06T07:42:53;8.50;;;6.43;;
42964;SDS011;28604;51.204;22.552;2023-04-06T07:45:20;7.65;;;4.70;;
42964;SDS011;28604;51.204;22.552;2023-04-06T07:47:46;9.70;;;6.20;;
42964;SDS011;28604;51.204;22.552;2023-04-06T07:50:12;6.78;;;4.93;;
42964;SDS011;28604;51.204;22.552;2023-04-06T07:52:38;6.47;;;4.75;;
42964;SDS011;28604;51.204;22.552;2023-04-06T07:55:05;7.03;;;5.95;;
42964;SDS011;28604;51.204;22.552;2023-04-06T07:57:32;8.90;;;6.30;;
42964;SDS011;28604;51.204;22.552;2023-04-06T07:59:57;9.15;;;5.63;;
42964;SDS011;28604;51.204;22.552;2023-04-06T08:02:24;10.30;;;6.47;;
42964;SDS011;28604;51.204;22.552;2023-04-06T08:04:50;8.50;;;5.43;;
42964;SDS011;28604;51.204;22.552;2023-04-06T08:07:16;5.20;;;4.55;;
42964;SDS011;28604;51.204;22.552;2023-04-06T08:09:42;6.38;;;5.53;;
42964;SDS011;28604;51.204;22.552;2023-04-06T08:12:08;9.00;;;4.95;;
42964;SDS011;28604;51.204;22.552;2023-04-06T08:14:34;7.10;;;4.90;;
42964;SDS011;28604;51.204;22.552;2023-04-06T08:17:00;6.22;;;5.10;;
42964;SDS011;28604;51.204;22.552;2023-04-06T08:19:26;8.32;;;4.97;;
42964;SDS011;28604;51.204;22.552;2023-04-06T08:21:52;6.68;;;5.38;;
42964;SDS011;28604;51.204;22.552;2023-04-06T08:24:18;9.80;;;5.20;;
42964;SDS011;28604;51.204;22.552;2023-04-06T08:26:44;6.80;;;5.20;;
42964;SDS011;28604;51.204;22.552;2023-04-06T08:29:09;11.63;;;5.65;;
42964;SDS011;28604;51.204;22.552;2023-04-06T08:31:36;8.82;;;5.60;;
42964;SDS011;28604;51.204;22.552;2023-04-06T08:34:03;9.95;;;5.20;;
42964;SDS011;28604;51.204;22.552;2023-04-06T08:36:30;9.10;;;5.22;;
42964;SDS011;28604;51.204;22.552;2023-04-06T08:38:56;6.85;;;4.45;;
42964;SDS011;28604;51.204;22.552;2023-04-06T08:41:23;9.90;;;4.80;;
42964;SDS011;28604;51.204;22.552;2023-04-06T08:43:49;6.28;;;4.97;;
42964;SDS011;28604;51.204;22.552;2023-04-06T08:46:22;8.52;;;4.68;;
42964;SDS011;28604;51.204;22.552;2023-04-06T08:48:54;5.93;;;4.70;;
42964;SDS011;28604;51.204;22.552;2023-04-06T08:51:32;7.97;;;5.43;;
42964;SDS011;28604;51.204;22.552;2023-04-06T08:53:58;10.10;;;5.18;;
42964;SDS011;28604;51.204;22.552;2023-04-06T08:56:26;6.75;;;5.43;;
42964;SDS011;28604;51.204;22.552;2023-04-06T08:58:54;5.97;;;4.50;;
42964;SDS011;28604;51.204;22.552;2023-04-06T09:01:21;7.55;;;4.93;;
42964;SDS011;28604;51.204;22.552;2023-04-06T09:03:50;9.00;;;5.88;;
42964;SDS011;28604;51.204;22.552;2023-04-06T09:06:20;13.05;;;5.50;;
42964;SDS011;28604;51.204;22.552;2023-04-06T09:08:46;8.77;;;4.68;;
42964;SDS011;28604;51.204;22.552;2023-04-06T09:11:12;9.05;;;5.38;;
42964;SDS011;28604;51.204;22.552;2023-04-06T09:13:53;5.00;;;4.25;;
42964;SDS011;28604;51.204;22.552;2023-04-06T09:16:20;7.65;;;4.63;;
42964;SDS011;28604;51.204;22.552;2023-04-06T09:18:46;9.43;;;5.38;;
42964;SDS011;28604;51.204;22.552;2023-04-06T09:21:16;5.85;;;5.03;;
42964;SDS011;28604;51.204;22.552;2023-04-06T09:23:42;12.10;;;5.45;;
42964;SDS011;28604;51.204;22.552;2023-04-06T09:26:13;8.35;;;5.03;;
42964;SDS011;28604;51.204;22.552;2023-04-06T09:28:50;11.35;;;6.15;;
42964;SDS011;28604;51.204;22.552;2023-04-06T09:31:22;6.72;;;4.80;;
42964;SDS011;28604;51.204;22.552;2023-04-06T09:33:53;8.20;;;5.25;;
42964;SDS011;28604;51.204;22.552;2023-04-06T09:36:20;9.07;;;4.95;;
42964;SDS011;28604;51.204;22.552;2023-04-06T09:38:56;6.57;;;4.43;;
42964;SDS011;28604;51.204;22.552;2023-04-06T09:41:24;6.18;;;4.18;;
42964;SDS011;28604;51.204;22.552;2023-04-06T09:44:08;7.97;;;6.43;;
42964;SDS011;28604;51.204;22.552;2023-04-06T09:46:41;8.85;;;4.47;;
42964;SDS011;28604;51.204;22.552;2023-04-06T09:49:08;8.40;;;4.70;;
42964;SDS011;28604;51.204;22.552;2023-04-06T09:51:44;6.07;;;4.80;;
42964;SDS011;28604;51.204;22.552;2023-04-06T09:54:15;5.75;;;4.43;;
42964;SDS011;28604;51.204;22.552;2023-04-06T09:56:45;6.43;;;4.35;;
42964;SDS011;28604;51.204;22.552;2023-04-06T09:59:13;6.13;;;4.32;;
42964;SDS011;28604;51.204;22.552;2023-04-06T10:01:46;6.55;;;4.28;;
42964;SDS011;28604;51.204;22.552;2023-04-06T10:07:02;8.00;;;4.90;;
42964;SDS011;28604;51.204;22.552;2023-04-06T10:09:30;10.70;;;4.82;;
42964;SDS011;28604;51.204;22.552;2023-04-06T10:12:02;12.70;;;5.35;;
42964;SDS011;28604;51.204;22.552;2023-04-06T10:14:30;9.35;;;5.05;;
42964;SDS011;28604;51.204;22.552;2023-04-06T10:17:03;10.30;;;4.40;;
42964;SDS011;28604;51.204;22.552;2023-04-06T10:19:42;11.60;;;4.18;;
42964;SDS011;28604;51.204;22.552;2023-04-06T10:22:12;7.53;;;4.25;;
42964;SDS011;28604;51.204;22.552;2023-04-06T10:24:43;4.80;;;3.72;;
42964;SDS011;28604;51.204;22.552;2023-04-06T10:27:09;3.75;;;3.35;;
42964;SDS011;28604;51.204;22.552;2023-04-06T10:29:43;5.90;;;4.32;;
42964;SDS011;28604;51.204;22.552;2023-04-06T10:32:10;9.95;;;4.78;;
42964;SDS011;28604;51.204;22.552;2023-04-06T10:34:36;7.32;;;4.00;;
42964;SDS011;28604;51.204;22.552;2023-04-06T10:37:15;4.38;;;3.55;;
42964;SDS011;28604;51.204;22.552;2023-04-06T10:39:47;4.25;;;3.72;;
42964;SDS011;28604;51.204;22.552;2023-04-06T10:42:24;5.28;;;3.35;;
42964;SDS011;28604;51.204;22.552;2023-04-06T10:44:50;6.03;;;3.58;;
42964;SDS011;28604;51.204;22.552;2023-04-06T10:47:17;4.60;;;3.00;;
42964;SDS011;28604;51.204;22.552;2023-04-06T10:49:43;6.32;;;3.75;;
42964;SDS011;28604;51.204;22.552;2023-04-06T10:52:09;5.50;;;3.47;;
42964;SDS011;28604;51.204;22.552;2023-04-06T10:54:38;5.50;;;3.50;;
42964;SDS011;28604;51.204;22.552;2023-04-06T10:57:08;6.33;;;3.47;;
42964;SDS011;28604;51.204;22.552;2023-04-06T10:59:34;5.32;;;3.53;;
42964;SDS011;28604;51.204;22.552;2023-04-06T11:02:00;4.80;;;3.05;;
42964;SDS011;28604;51.204;22.552;2023-04-06T11:04:26;4.60;;;3.42;;
42964;SDS011;28604;51.204;22.552;2023-04-06T11:06:52;3.08;;;2.67;;
42964;SDS011;28604;51.204;22.552;2023-04-06T11:09:25;5.35;;;3.72;;
42964;SDS011;28604;51.204;22.552;2023-04-06T11:11:52;4.13;;;3.33;;
42964;SDS011;28604;51.204;22.552;2023-04-06T11:14:19;4.63;;;3.47;;
42964;SDS011;28604;51.204;22.552;2023-04-06T11:16:46;4.38;;;3.42;;
42964;SDS011;28604;51.204;22.552;2023-04-06T11:19:16;5.82;;;3.92;;
42964;SDS011;28604;51.204;22.552;2023-04-06T11:21:43;4.72;;;3.03;;
42964;SDS011;28604;51.204;22.552;2023-04-06T11:24:23;5.05;;;3.63;;
42964;SDS011;28604;51.204;22.552;2023-04-06T11:26:57;6.82;;;3.78;;
42964;SDS011;28604;51.204;22.552;2023-04-06T11:29:24;3.92;;;3.30;;
42964;SDS011;28604;51.204;22.552;2023-04-06T11:31:53;6.55;;;3.97;;
42964;SDS011;28604;51.204;22.552;2023-04-06T11:34:23;3.38;;;3.08;;
42964;SDS011;28604;51.204;22.552;2023-04-06T11:37:00;6.60;;;3.90;;
42964;SDS011;28604;51.204;22.552;2023-04-06T11:39:28;7.93;;;3.90;;
42964;SDS011;28604;51.204;22.552;2023-04-06T11:42:01;4.45;;;3.25;;
42964;SDS011;28604;51.204;22.552;2023-04-06T11:44:40;4.75;;;3.85;;
42964;SDS011;28604;51.204;22.552;2023-04-06T11:47:11;5.65;;;3.60;;
42964;SDS011;28604;51.204;22.552;2023-04-06T11:49:39;5.30;;;3.60;;
42964;SDS011;28604;51.204;22.552;2023-04-06T11:52:23;4.60;;;3.95;;
42964;SDS011;28604;51.204;22.552;2023-04-06T11:57:20;6.00;;;3.88;;
42964;SDS011;28604;51.204;22.552;2023-04-06T11:59:50;4.47;;;4.03;;
42964;SDS011;28604;51.204;22.552;2023-04-06T12:02:17;5.07;;;4.18;;
42964;SDS011;28604;51.204;22.552;2023-04-06T12:04:44;7.50;;;3.90;;
42964;SDS011;28604;51.204;22.552;2023-04-06T12:07:10;3.55;;;3.25;;
42964;SDS011;28604;51.204;22.552;2023-04-06T12:09:36;4.15;;;3.75;;
42964;SDS011;28604;51.204;22.552;2023-04-06T12:12:03;4.68;;;3.47;;
42964;SDS011;28604;51.204;22.552;2023-04-06T12:14:29;3.65;;;3.35;;
42964;SDS011;28604;51.204;22.552;2023-04-06T12:16:56;4.30;;;3.72;;
42964;SDS011;28604;51.204;22.552;2023-04-06T12:19:23;6.18;;;3.20;;
42964;SDS011;28604;51.204;22.552;2023-04-06T12:21:52;4.47;;;3.15;;
42964;SDS011;28604;51.204;22.552;2023-04-06T12:24:18;4.03;;;2.97;;
42964;SDS011;28604;51.204;22.552;2023-04-06T12:26:45;6.50;;;3.13;;
42964;SDS011;28604;51.204;22.552;2023-04-06T12:29:11;6.28;;;3.70;;
42964;SDS011;28604;51.204;22.552;2023-04-06T12:31:38;8.43;;;3.58;;
42964;SDS011;28604;51.204;22.552;2023-04-06T12:34:06;4.00;;;3.17;;
42964;SDS011;28604;51.204;22.552;2023-04-06T12:36:32;4.70;;;2.72;;
42964;SDS011;28604;51.204;22.552;2023-04-06T12:38:58;4.88;;;3.13;;
42964;SDS011;28604;51.204;22.552;2023-04-06T12:41:26;3.38;;;3.05;;
42964;SDS011;28604;51.204;22.552;2023-04-06T12:43:52;3.22;;;2.78;;
42964;SDS011;28604;51.204;22.552;2023-04-06T12:46:18;4.72;;;3.53;;
42964;SDS011;28604;51.204;22.552;2023-04-06T12:48:45;5.82;;;3.72;;
42964;SDS011;28604;51.204;22.552;2023-04-06T12:51:11;3.50;;;3.20;;
42964;SDS011;28604;51.204;22.552;2023-04-06T12:53:37;3.42;;;2.80;;
42964;SDS011;28604;51.204;22.552;2023-04-06T12:56:10;5.95;;;3.45;;
42964;SDS011;28604;51.204;22.552;2023-04-06T12:58:42;4.63;;;3.47;;
42964;SDS011;28604;51.204;22.552;2023-04-06T13:01:08;4.05;;;3.55;;
42964;SDS011;28604;51.204;22.552;2023-04-06T13:03:34;5.65;;;3.47;;
42964;SDS011;28604;51.204;22.552;2023-04-06T13:06:01;5.40;;;3.55;;
42964;SDS011;28604;51.204;22.552;2023-04-06T13:08:27;4.90;;;3.15;;
42964;SDS011;28604;51.204;22.552;2023-04-06T13:10:54;4.20;;;3.33;;
42964;SDS011;28604;51.204;22.552;2023-04-06T13:13:21;5.20;;;3.97;;
42964;SDS011;28604;51.204;22.552;2023-04-06T13:15:52;5.05;;;3.08;;
42964;SDS011;28604;51.204;22.552;2023-04-06T13:18:20;4.05;;;3.60;;
42964;SDS011;28604;51.204;22.552;2023-04-06T13:20:48;3.67;;;3.33;;
42964;SDS011;28604;51.204;22.552;2023-04-06T13:23:14;4.30;;;3.30;;
42964;SDS011;28604;51.204;22.552;2023-04-06T13:25:41;5.65;;;4.05;;
42964;SDS011;28604;51.204;22.552;2023-04-06T13:28:07;4.35;;;3.95;;
42964;SDS011;28604;51.204;22.552;2023-04-06T13:30:35;4.22;;;3.78;;
42964;SDS011;28604;51.204;22.552;2023-04-06T13:33:01;4.57;;;4.00;;
42964;SDS011;28604;51.204;22.552;2023-04-06T13:35:27;4.40;;;3.85;;
42964;SDS011;28604;51.204;22.552;2023-04-06T13:37:53;4.40;;;3.42;;
42964;SDS011;28604;51.204;22.552;2023-04-06T13:40:19;4.95;;;3.75;;
42964;SDS011;28604;51.204;22.552;2023-04-06T13:42:46;5.57;;;4.13;;
42964;SDS011;28604;51.204;22.552;2023-04-06T13:45:12;4.30;;;3.80;;
42964;SDS011;28604;51.204;22.552;2023-04-06T13:47:38;4.13;;;3.63;;
42964;SDS011;28604;51.204;22.552;2023-04-06T13:50:05;6.20;;;4.03;;
42964;SDS011;28604;51.204;22.552;2023-04-06T13:52:31;6.15;;;4.43;;
42964;SDS011;28604;51.204;22.552;2023-04-06T13:54:57;5.88;;;4.97;;
42964;SDS011;28604;51.204;22.552;2023-04-06T13:57:23;6.75;;;3.78;;
42964;SDS011;28604;51.204;22.552;2023-04-06T13:59:49;5.90;;;3.95;;
42964;SDS011;28604;51.204;22.552;2023-04-06T14:02:15;4.57;;;4.15;;
42964;SDS011;28604;51.204;22.552;2023-04-06T14:04:41;5.75;;;4.43;;
42964;SDS011;28604;51.204;22.552;2023-04-06T14:07:07;6.82;;;4.15;;
42964;SDS011;28604;51.204;22.552;2023-04-06T14:09:34;5.63;;;4.30;;
42964;SDS011;28604;51.204;22.552;2023-04-06T14:12:00;4.65;;;3.85;;
42964;SDS011;28604;51.204;22.552;2023-04-06T14:14:26;4.80;;;4.30;;
42964;SDS011;28604;51.204;22.552;2023-04-06T14:16:52;5.43;;;4.10;;
42964;SDS011;28604;51.204;22.552;2023-04-06T14:19:18;6.53;;;4.15;;
42964;SDS011;28604;51.204;22.552;2023-04-06T14:21:44;6.25;;;3.95;;
42964;SDS011;28604;51.204;22.552;2023-04-06T14:24:10;7.47;;;5.43;;
42964;SDS011;28604;51.204;22.552;2023-04-06T14:26:38;6.85;;;4.75;;
42964;SDS011;28604;51.204;22.552;2023-04-06T14:29:05;6.45;;;4.32;;
42964;SDS011;28604;51.204;22.552;2023-04-06T14:31:31;4.45;;;4.05;;
42964;SDS011;28604;51.204;22.552;2023-04-06T14:33:58;6.07;;;4.40;;
42964;SDS011;28604;51.204;22.552;2023-04-06T14:36:26;4.45;;;3.80;;
42964;SDS011;28604;51.204;22.552;2023-04-06T14:38:56;6.25;;;4.82;;
42964;SDS011;28604;51.204;22.552;2023-04-06T14:41:22;6.13;;;5.00;;
42964;SDS011;28604;51.204;22.552;2023-04-06T14:43:49;5.15;;;4.38;;
42964;SDS011;28604;51.204;22.552;2023-04-06T14:46:17;4.32;;;3.92;;
42964;SDS011;28604;51.204;22.552;2023-04-06T14:48:44;5.50;;;4.75;;